Terminal Aerodrome Forecast
Issued by NWS

Home | Current Version | Previous Version | Graphics & Text | Print | Product List | Glossary On
Versions: 1 2 3 4 5 6 7 8 9 10 11 12 13 14 15 16 17 18 19 20 21 22 23 24
167
FTUS43 KTOP 241015 AAA
TAFMHK
TAF AMD
KMHK 241015Z 2410/2506 13010KT P6SM SCT150 WS015/15045KT
     FM241400 14013KT P6SM BKN035
     FM241600 18014G22KT P6SM SCT050
     FM250000 26008KT P6SM SCT140=

USA.gov is the U.S. government's official web portal to all federal, state and local government web resources and services.